Time;durP1;ratioP1;P1;durP2;ratioP2;P2;SDS_P1;SDS_P2;PMS_P1;PMS_P2;Temp;Humidity;BMP_temperature;BMP_pressure;BME280_temperature;BME280_humidity;BME280_pressure;Samples;Min_cycle;Max_cycle;Signal;HPM_P1;HPM_P2
2023/05/22 00:01:05;;;;;;;17.08;12.00;;;15.50;99.90;;;;;;5080114;28;20046;-69
2023/05/22 00:03:32;;;;;;;23.50;10.93;;;15.50;99.90;;;;;;5079045;28;20055;-68
2023/05/22 00:05:59;;;;;;;11.75;8.80;;;15.30;99.90;;;;;;5080300;28;20083;-70
2023/05/22 00:08:25;;;;;;;18.77;10.82;;;15.30;99.90;;;;;;5080537;28;20185;-70
2023/05/22 00:10:52;;;;;;;21.95;10.40;;;15.20;99.90;;;;;;5080229;28;20079;-67
2023/05/22 00:13:17;;;;;;;15.82;11.18;;;15.30;99.90;;;;;;5095881;28;20809;-69
2023/05/22 00:15:43;;;;;;;;;;;15.30;99.90;;;;;;5082884;28;20051;-69
2023/05/22 00:18:09;;;;;;;21.17;12.18;;;15.30;99.90;;;;;;5071935;28;20790;-69
2023/05/22 00:20:37;;;;;;;16.00;10.82;;;15.30;99.90;;;;;;5057924;28;20086;-69
2023/05/22 00:23:09;;;;;;;14.50;10.75;;;15.20;99.90;;;;;;5063317;28;20115;-69
2023/05/22 00:25:36;;;;;;;17.95;11.85;;;15.20;99.90;;;;;;5068042;28;20076;-68
2023/05/22 00:28:02;;;;;;;14.98;10.70;;;15.30;99.90;;;;;;5066882;28;21122;-70
2023/05/22 00:30:28;;;;;;;17.67;10.35;;;15.30;99.90;;;;;;5066021;28;20043;-70
2023/05/22 00:32:53;;;;;;;;;;;15.30;99.90;;;;;;5065694;28;20033;-69
2023/05/22 00:35:19;;;;;;;15.25;10.30;;;15.20;99.90;;;;;;5067722;28;19926;-68
2023/05/22 00:37:45;;;;;;;;;;;15.20;99.90;;;;;;5066430;28;20045;-69
2023/05/22 00:40:12;;;;;;;13.48;9.98;;;15.20;99.90;;;;;;5062648;28;19928;-68
2023/05/22 00:42:38;;;;;;;18.00;9.90;;;15.20;99.90;;;;;;5046115;28;20400;-70
2023/05/22 00:45:05;;;;;;;;;;;15.20;99.90;;;;;;5061441;28;20037;-68
2023/05/22 00:47:31;;;;;;;14.98;9.40;;;15.20;99.90;;;;;;5083900;28;19926;-69
2023/05/22 00:49:57;;;;;;;;;;;15.20;99.90;;;;;;5066918;28;20067;-69
2023/05/22 00:52:23;;;;;;;16.02;9.18;;;15.20;99.90;;;;;;5097132;28;20011;-69
2023/05/22 00:54:51;;;;;;;12.57;9.57;;;15.10;99.90;;;;;;5067142;28;20071;-70
2023/05/22 00:57:17;;;;;;;13.45;9.77;;;15.10;99.90;;;;;;5066309;28;20119;-69
2023/05/22 00:59:43;;;;;;;18.35;9.70;;;15.10;99.90;;;;;;5065837;28;20037;-71
2023/05/22 01:02:09;;;;;;;;;;;15.10;99.90;;;;;;5065519;28;20083;-71
2023/05/22 01:04:36;;;;;;;13.85;10.25;;;15.10;99.90;;;;;;5064906;28;19952;-70
2023/05/22 01:07:01;;;;;;;14.50;10.13;;;15.10;99.90;;;;;;5064812;28;20134;-69
2023/05/22 01:09:28;;;;;;;;;;;15.10;99.90;;;;;;5066837;28;20419;-68
2023/05/22 01:12:12;;;;;;;14.23;10.30;;;15.10;99.90;;;;;;5066064;28;19922;-69
2023/05/22 01:15:05;;;;;;;15.00;10.48;;;15.10;99.90;;;;;;5066538;28;20036;-69
2023/05/22 01:17:51;;;;;;;16.60;10.95;;;15.10;99.90;;;;;;5066401;28;20049;-72
2023/05/22 01:20:24;;;;;;;14.43;10.77;;;15.10;99.90;;;;;;5065333;28;20029;-71
2023/05/22 01:23:17;;;;;;;15.25;11.07;;;15.00;99.90;;;;;;5059481;28;20059;-69
2023/05/22 01:26:04;;;;;;;14.60;10.60;;;15.00;99.90;;;;;;5063937;28;20207;-68
2023/05/22 01:29:07;;;;;;;16.88;11.93;;;15.00;99.90;;;;;;5065915;28;20040;-70
2023/05/22 01:31:39;;;;;;;16.83;11.40;;;15.00;99.90;;;;;;5044870;28;20037;-71
2023/05/22 01:34:09;;;;;;;23.02;11.60;;;15.00;99.90;;;;;;5049628;28;20044;-70
2023/05/22 01:36:37;;;;;;;19.42;9.95;;;15.00;99.90;;;;;;5065728;28;20080;-71
2023/05/22 01:39:05;;;;;;;17.73;11.40;;;14.90;99.90;;;;;;5048953;28;20468;-69
2023/05/22 01:41:32;;;;;;;15.15;11.05;;;14.90;99.90;;;;;;5064814;28;20403;-69
2023/05/22 01:44:00;;;;;;;20.65;11.55;;;14.90;99.90;;;;;;5065194;28;20426;-69
2023/05/22 01:46:29;;;;;;;19.58;11.95;;;14.80;99.90;;;;;;5063583;28;20140;-70
2023/05/22 01:48:55;;;;;;;13.48;10.55;;;14.80;99.90;;;;;;5062196;28;20115;-72
2023/05/22 01:51:51;;;;;;;19.48;11.48;;;14.80;99.90;;;;;;5060466;28;20040;-71
2023/05/22 01:54:34;;;;;;;18.05;10.98;;;14.80;99.90;;;;;;5056632;28;20044;-72
2023/05/22 01:57:26;;;;;;;15.98;11.13;;;14.80;99.90;;;;;;5065799;28;20141;-69
2023/05/22 01:59:58;;;;;;;16.77;11.07;;;14.70;99.90;;;;;;5065537;28;20042;-71
2023/05/22 02:02:25;;;;;;;21.52;11.25;;;14.70;99.90;;;;;;5058033;28;20036;-71
2023/05/22 02:04:56;;;;;;;22.02;11.35;;;14.70;99.90;;;;;;5065381;28;20373;-69
2023/05/22 02:07:23;;;;;;;18.58;10.98;;;14.70;99.90;;;;;;5063728;28;20048;-69
2023/05/22 02:09:52;;;;;;;20.90;10.95;;;14.70;99.90;;;;;;5064479;28;20052;-71
2023/05/22 02:12:19;;;;;;;21.95;11.93;;;14.60;99.90;;;;;;5079610;28;20436;-71
2023/05/22 02:14:45;;;;;;;18.65;11.68;;;14.60;99.90;;;;;;5065657;28;20028;-71
2023/05/22 02:17:11;;;;;;;20.05;12.23;;;14.60;99.90;;;;;;5064377;28;20446;-71
2023/05/22 02:19:37;;;;;;;;;;;14.60;99.90;;;;;;5065550;28;20078;-68
2023/05/22 02:22:03;;;;;;;17.35;10.70;;;14.60;99.90;;;;;;5064414;28;19920;-68
2023/05/22 02:24:29;;;;;;;17.52;11.45;;;14.50;99.90;;;;;;5047195;28;20060;-68
2023/05/22 02:26:55;;;;;;;20.50;12.73;;;14.50;99.90;;;;;;5045010;28;20051;-69
2023/05/22 02:29:20;;;;;;;;;;;14.40;99.90;;;;;;5062730;28;20036;-69
2023/05/22 02:31:46;;;;;;;23.10;12.02;;;14.40;99.90;;;;;;5061753;28;19917;-70
2023/05/22 02:34:12;;;;;;;;;;;14.40;99.90;;;;;;5065445;28;20065;-71
2023/05/22 02:36:37;;;;;;;24.73;12.07;;;14.40;99.90;;;;;;5076869;28;19916;-70
2023/05/22 02:39:04;;;;;;;;;;;14.30;99.90;;;;;;5063989;28;20491;-68
2023/05/22 02:41:29;;;;;;;18.35;10.32;;;14.30;99.90;;;;;;5050043;28;20011;-70
2023/05/22 02:43:55;;;;;;;;;;;14.20;99.90;;;;;;5044851;28;20120;-70
2023/05/22 02:46:21;;;;;;;22.38;11.05;;;14.20;99.90;;;;;;5060774;28;20395;-71
2023/05/22 02:48:46;;;;;;;16.73;12.13;;;14.20;99.90;;;;;;5064300;28;20055;-70
2023/05/22 02:51:12;;;;;;;;;;;14.20;99.90;;;;;;5059770;28;20049;-71
2023/05/22 02:53:40;;;;;;;20.85;11.82;;;14.20;99.90;;;;;;5094460;28;20356;-69
2023/05/22 02:56:09;;;;;;;24.20;11.13;;;14.20;99.90;;;;;;5061170;28;20040;-69
2023/05/22 02:58:35;;;;;;;21.85;12.05;;;14.20;99.90;;;;;;5061264;28;20163;-69
2023/05/22 03:01:02;;;;;;;;;;;14.20;99.90;;;;;;5067186;28;20508;-69
2023/05/22 03:03:30;;;;;;;22.08;11.98;;;14.20;99.90;;;;;;5064110;28;19955;-69
2023/05/22 03:05:57;;;;;;;16.08;12.25;;;14.20;99.90;;;;;;5064043;28;20052;-69
2023/05/22 03:08:27;;;;;;;19.55;11.45;;;14.20;99.90;;;;;;5064382;28;20066;-71
2023/05/22 03:10:52;;;;;;;20.05;12.25;;;14.20;99.90;;;;;;5064891;28;20045;-70
2023/05/22 03:13:18;;;;;;;;;;;14.20;99.90;;;;;;5073520;28;20139;-68
2023/05/22 03:15:44;;;;;;;20.25;11.88;;;14.20;99.90;;;;;;5073175;28;19963;-69
2023/05/22 03:18:10;;;;;;;17.75;11.48;;;14.10;99.90;;;;;;5062754;28;20048;-68
2023/05/22 03:20:35;;;;;;;26.52;12.20;;;14.10;99.90;;;;;;5072357;28;20670;-68
2023/05/22 03:23:01;;;;;;;;;;;14.10;99.90;;;;;;5063862;28;20113;-68
2023/05/22 03:25:26;;;;;;;18.27;12.98;;;14.10;99.90;;;;;;5072275;28;19939;-69
2023/05/22 03:27:52;;;;;;;;;;;14.10;99.90;;;;;;5059706;28;20029;-71
2023/05/22 03:30:18;;;;;;;18.70;12.05;;;14.00;99.90;;;;;;5051104;28;20007;-71
2023/05/22 03:32:43;;;;;;;;;;;14.00;99.90;;;;;;5066552;28;20033;-69
2023/05/22 03:35:09;;;;;;;18.10;12.20;;;14.00;99.90;;;;;;5064578;28;19931;-69
2023/05/22 03:37:35;;;;;;;24.05;12.52;;;14.00;99.90;;;;;;5064072;28;20074;-70
2023/05/22 03:40:01;;;;;;;20.27;13.13;;;14.00;99.90;;;;;;5064555;28;20033;-71
2023/05/22 03:42:26;;;;;;;;;;;14.00;99.90;;;;;;5050361;28;20045;-70
2023/05/22 03:44:52;;;;;;;23.23;11.82;;;14.00;99.90;;;;;;5047803;28;19967;-71
2023/05/22 03:47:18;;;;;;;22.33;12.10;;;14.00;99.90;;;;;;5064454;28;20036;-71
2023/05/22 03:49:43;;;;;;;;;;;14.00;99.90;;;;;;5056937;28;20049;-70
2023/05/22 03:52:09;;;;;;;21.00;12.07;;;14.00;99.90;;;;;;5063065;28;19924;-72
2023/05/22 03:54:35;;;;;;;19.33;12.32;;;14.00;99.90;;;;;;5083284;28;20072;-69
2023/05/22 03:57:01;;;;;;;;;;;14.00;99.90;;;;;;5070219;28;20459;-69
2023/05/22 03:59:26;;;;;;;18.90;11.65;;;14.10;99.90;;;;;;5071175;28;19927;-68
2023/05/22 04:01:52;;;;;;;;;;;14.10;99.90;;;;;;5077137;28;20040;-71
2023/05/22 04:04:19;;;;;;;16.10;11.60;;;14.20;99.90;;;;;;5073289;28;19927;-69
2023/05/22 04:06:45;;;;;;;16.92;12.13;;;14.10;99.90;;;;;;5090713;28;20044;-69
2023/05/22 04:09:11;;;;;;;;;;;14.20;99.90;;;;;;5073556;28;20036;-69
2023/05/22 04:11:41;;;;;;;17.65;11.48;;;14.20;99.90;;;;;;5069133;28;19927;-69
2023/05/22 04:14:07;;;;;;;17.90;12.48;;;14.20;99.90;;;;;;5068421;28;20040;-69
2023/05/22 04:16:33;;;;;;;17.38;12.85;;;14.20;99.90;;;;;;5069034;28;20055;-70
2023/05/22 04:19:01;;;;;;;;;;;14.30;99.90;;;;;;5068674;28;20036;-71
2023/05/22 04:21:27;;;;;;;23.20;12.35;;;14.50;99.90;;;;;;5056575;28;20007;-71
2023/05/22 04:23:52;;;;;;;;;;;14.50;99.90;;;;;;5066914;28;20194;-71
2023/05/22 04:26:19;;;;;;;17.20;12.60;;;14.60;99.90;;;;;;5067209;28;19924;-70
2023/05/22 04:28:46;;;;;;;21.67;12.30;;;14.60;99.90;;;;;;5067781;28;20048;-72
2023/05/22 04:31:12;;;;;;;24.27;13.55;;;14.60;99.90;;;;;;5064101;28;20564;-70
2023/05/22 04:33:38;;;;;;;20.98;13.65;;;14.60;99.90;;;;;;5064970;28;20131;-70
2023/05/22 04:36:05;;;;;;;19.58;13.18;;;14.60;99.90;;;;;;5068206;28;20052;-70
2023/05/22 04:38:36;;;;;;;16.48;12.13;;;14.60;99.90;;;;;;5066559;28;20040;-71
2023/05/22 04:41:07;;;;;;;27.45;13.68;;;14.70;99.90;;;;;;5067575;28;20048;-71
2023/05/22 04:43:33;;;;;;;17.40;12.30;;;14.70;99.90;;;;;;5066240;28;20934;-69
2023/05/22 04:45:59;;;;;;;;;;;14.80;99.90;;;;;;5068644;28;20048;-71
2023/05/22 04:48:25;;;;;;;15.70;10.98;;;14.80;99.90;;;;;;5066940;28;19923;-69
2023/05/22 04:50:50;;;;;;;18.83;12.55;;;14.90;99.90;;;;;;5066561;28;20032;-70
2023/05/22 04:53:16;;;;;;;;;;;14.90;99.90;;;;;;5065239;28;20036;-70
2023/05/22 04:55:42;;;;;;;16.08;12.15;;;15.00;99.90;;;;;;5067587;28;19920;-71
2023/05/22 04:58:08;;;;;;;;;;;15.10;99.90;;;;;;5074360;28;20178;-69
2023/05/22 05:00:34;;;;;;;17.95;11.88;;;15.10;99.90;;;;;;5065010;28;19921;-71
2023/05/22 05:02:59;;;;;;;;;;;15.20;99.90;;;;;;5066771;28;20044;-70
2023/05/22 05:05:25;;;;;;;17.98;12.07;;;15.20;99.90;;;;;;5081590;28;19924;-72
2023/05/22 05:07:50;;;;;;;;;;;15.20;99.90;;;;;;5066991;28;20036;-71
2023/05/22 05:10:16;;;;;;;17.02;12.23;;;15.30;99.90;;;;;;5065427;28;19920;-68
2023/05/22 05:12:42;;;;;;;;;;;15.30;99.90;;;;;;5062712;28;20040;-67
2023/05/22 05:15:08;;;;;;;15.55;11.95;;;15.30;99.90;;;;;;5061893;28;19920;-70
2023/05/22 05:17:37;;;;;;;17.20;12.75;;;15.40;99.90;;;;;;5065794;28;20095;-68
2023/05/22 05:20:05;;;;;;;17.98;13.02;;;15.40;99.90;;;;;;5057557;28;20499;-68
2023/05/22 05:22:32;;;;;;;21.13;13.25;;;15.40;99.90;;;;;;5064348;28;20052;-68
2023/05/22 05:24:57;;;;;;;;;;;15.40;99.90;;;;;;5063706;28;20416;-68
2023/05/22 05:27:23;;;;;;;21.50;14.18;;;15.50;99.90;;;;;;5065111;28;20009;-66
2023/05/22 05:29:49;;;;;;;;;;;15.50;99.90;;;;;;5065453;28;20123;-69
2023/05/22 05:32:16;;;;;;;20.20;13.25;;;15.60;99.90;;;;;;5075334;28;19915;-67
2023/05/22 05:34:41;;;;;;;18.98;12.88;;;15.70;99.90;;;;;;5070863;28;20043;-70
2023/05/22 05:37:07;;;;;;;;;;;15.80;99.90;;;;;;5069645;28;20041;-68
2023/05/22 05:39:33;;;;;;;16.05;12.45;;;15.90;99.90;;;;;;5062449;28;19916;-68
2023/05/22 05:41:59;;;;;;;;;;;16.00;99.90;;;;;;5065730;28;20036;-68
2023/05/22 05:44:24;;;;;;;19.38;12.30;;;16.20;99.90;;;;;;5064178;28;19921;-69
2023/05/22 05:46:51;;;;;;;18.75;12.68;;;16.60;99.90;;;;;;5064392;28;20566;-70
2023/05/22 05:49:18;;;;;;;14.93;12.02;;;16.90;99.90;;;;;;5065771;28;20032;-70
2023/05/22 05:51:44;;;;;;;14.90;12.02;;;17.30;99.90;;;;;;5053555;28;20120;-68
2023/05/22 05:54:09;;;;;;;;;;;17.50;99.90;;;;;;5062225;28;20325;-70
2023/05/22 05:56:36;;;;;;;13.80;11.35;;;17.70;99.90;;;;;;5072771;28;19927;-70
2023/05/22 05:59:03;;;;;;;19.05;12.27;;;17.80;99.90;;;;;;5059971;28;20045;-71
2023/05/22 06:01:30;;;;;;;15.60;12.38;;;17.90;99.90;;;;;;5054547;28;20508;-70
2023/05/22 06:03:55;;;;;;;18.15;11.93;;;18.00;99.90;;;;;;5052034;28;20040;-67
2023/05/22 06:06:24;;;;;;;;;;;18.00;99.90;;;;;;5065372;28;20040;-68
2023/05/22 06:08:50;;;;;;;24.65;12.70;;;18.00;99.90;;;;;;5065185;28;19920;-67
2023/05/22 06:11:16;;;;;;;;;;;18.00;99.90;;;;;;5064269;28;20041;-66
2023/05/22 06:13:41;;;;;;;14.20;11.20;;;17.90;99.90;;;;;;5061492;28;19920;-69
2023/05/22 06:16:07;;;;;;;19.30;13.00;;;17.90;99.90;;;;;;5045812;28;20126;-69
2023/05/22 06:18:32;;;;;;;19.35;13.35;;;17.90;99.90;;;;;;5060575;28;20041;-67
2023/05/22 06:20:58;;;;;;;19.33;12.68;;;17.90;99.90;;;;;;5059194;28;20036;-68
2023/05/22 06:23:24;;;;;;;15.98;11.88;;;17.90;99.90;;;;;;5064072;28;20048;-66
2023/05/22 06:25:50;;;;;;;19.42;12.88;;;18.00;99.90;;;;;;5067483;28;20048;-69
2023/05/22 06:28:15;;;;;;;;;;;18.00;99.90;;;;;;5055951;28;20128;-68
2023/05/22 06:30:41;;;;;;;20.33;12.60;;;18.10;99.90;;;;;;5066719;28;19920;-67
2023/05/22 06:33:07;;;;;;;17.05;11.57;;;18.10;99.90;;;;;;5042446;28;20044;-67
2023/05/22 06:35:33;;;;;;;20.38;12.40;;;18.10;99.90;;;;;;5058730;28;20114;-67
2023/05/22 06:37:59;;;;;;;20.88;12.25;;;18.20;99.90;;;;;;5064498;28;20492;-67
2023/05/22 06:40:24;;;;;;;16.48;11.73;;;18.20;99.90;;;;;;5063172;28;20501;-67
2023/05/22 06:42:51;;;;;;;;;;;18.30;99.90;;;;;;5068165;28;20040;-69
2023/05/22 06:45:18;;;;;;;14.85;12.30;;;18.30;99.90;;;;;;5061370;28;19924;-67
2023/05/22 06:47:44;;;;;;;17.58;12.40;;;18.30;99.90;;;;;;5054776;28;21055;-66
2023/05/22 06:50:10;;;;;;;16.98;11.93;;;18.40;99.90;;;;;;5055082;28;20036;-68
2023/05/22 06:52:37;;;;;;;16.25;12.02;;;18.50;99.90;;;;;;5060312;28;20036;-68
2023/05/22 06:55:04;;;;;;;15.10;11.00;;;18.60;99.90;;;;;;5063590;28;20493;-67
2023/05/22 06:57:31;;;;;;;16.42;12.40;;;18.70;99.90;;;;;;5064097;28;20098;-68
2023/05/22 06:59:56;;;;;;;20.92;12.15;;;18.80;99.90;;;;;;5064049;28;20041;-67
2023/05/22 07:02:22;;;;;;;15.57;12.30;;;18.90;99.90;;;;;;5075963;28;20045;-67
2023/05/22 07:04:47;;;;;;;22.98;12.55;;;18.90;99.90;;;;;;5063292;28;20068;-69
2023/05/22 07:07:13;;;;;;;20.38;12.25;;;19.00;99.90;;;;;;5063928;28;20036;-67
2023/05/22 07:09:39;;;;;;;19.13;11.80;;;19.30;99.90;;;;;;5064547;28;20040;-69
2023/05/22 07:12:05;;;;;;;14.77;11.45;;;19.60;99.90;;;;;;5062881;28;20515;-69
2023/05/22 07:14:31;;;;;;;15.07;11.07;;;19.90;99.90;;;;;;5062502;28;20064;-67
2023/05/22 07:16:57;;;;;;;17.58;11.23;;;20.40;99.90;;;;;;5063135;28;20454;-69
2023/05/22 07:19:22;;;;;;;16.15;9.75;;;21.10;99.90;;;;;;5064790;28;20075;-67
2023/05/22 07:21:48;;;;;;;13.30;9.30;;;22.00;99.90;;;;;;5062698;28;20072;-67
2023/05/22 07:24:14;;;;;;;14.15;9.45;;;22.30;99.90;;;;;;5064547;28;20033;-67
2023/05/22 07:26:45;;;;;;;13.18;9.25;;;22.40;99.90;;;;;;5063421;28;20050;-67
2023/05/22 07:29:11;;;;;;;12.30;8.90;;;22.50;99.90;;;;;;5067301;28;20125;-68
2023/05/22 07:31:37;;;;;;;10.20;7.55;;;22.90;99.90;;;;;;5065955;28;20037;-70
2023/05/22 07:34:03;;;;;;;11.13;9.27;;;23.50;99.90;;;;;;5068464;28;20041;-68
2023/05/22 07:36:30;;;;;;;13.75;9.27;;;24.00;99.90;;;;;;5066337;28;20052;-69
2023/05/22 07:38:56;;;;;;;13.68;9.48;;;24.00;99.50;;;;;;5067287;28;20546;-69
2023/05/22 07:41:23;;;;;;;15.40;9.95;;;24.40;98.80;;;;;;5066972;28;20055;-69
2023/05/22 07:43:49;;;;;;;13.27;8.93;;;24.80;99.30;;;;;;5068039;28;20040;-68
2023/05/22 07:46:15;;;;;;;11.88;9.20;;;25.20;98.10;;;;;;5065015;28;20143;-69
2023/05/22 07:48:40;;;;;;;16.95;9.18;;;25.40;98.10;;;;;;5067963;28;20104;-70
2023/05/22 07:51:06;;;;;;;10.43;8.30;;;25.80;95.60;;;;;;5059261;28;20045;-72
2023/05/22 07:53:32;;;;;;;12.07;8.75;;;25.90;95.30;;;;;;5067604;28;20092;-71
2023/05/22 07:55:58;;;;;;;11.13;9.18;;;25.60;98.20;;;;;;5067072;28;20438;-68
2023/05/22 07:58:24;;;;;;;11.93;8.25;;;25.20;96.60;;;;;;5067516;28;20063;-68
2023/05/22 08:00:49;;;;;;;13.10;8.55;;;25.70;98.30;;;;;;5059600;28;20087;-70
2023/05/22 08:03:15;;;;;;;10.82;8.88;;;26.00;95.80;;;;;;5047252;28;20045;-68
2023/05/22 08:05:40;;;;;;;10.68;8.88;;;26.50;95.70;;;;;;5050950;28;21060;-68
2023/05/22 08:08:06;;;;;;;9.90;8.05;;;27.10;95.50;;;;;;5061616;28;20035;-70
2023/05/22 08:10:32;;;;;;;15.02;7.95;;;27.40;93.40;;;;;;5066431;28;20453;-71
2023/05/22 08:13:01;;;;;;;11.77;8.73;;;27.70;92.20;;;;;;5054953;28;20564;-70
2023/05/22 08:15:27;;;;;;;13.75;8.93;;;28.20;90.60;;;;;;5065543;28;20068;-69
2023/05/22 08:17:52;;;;;;;13.95;8.20;;;28.90;92.00;;;;;;5067511;28;20032;-67
2023/05/22 08:20:18;;;;;;;15.07;8.10;;;29.80;91.00;;;;;;5063120;28;20085;-68
2023/05/22 08:22:44;;;;;;;16.85;8.88;;;29.30;86.90;;;;;;5065932;28;20504;-68
2023/05/22 08:25:09;;;;;;;11.75;7.85;;;29.20;88.40;;;;;;5071681;28;20035;-68
2023/05/22 08:27:35;;;;;;;11.60;7.85;;;28.80;93.30;;;;;;5076018;28;20056;-69
2023/05/22 08:30:03;;;;;;;10.30;7.53;;;28.20;92.90;;;;;;5066802;28;20041;-69
2023/05/22 08:32:28;;;;;;;11.27;8.02;;;27.80;93.60;;;;;;5063243;28;20064;-69
2023/05/22 08:34:54;;;;;;;12.93;8.60;;;28.10;93.00;;;;;;5077795;28;20503;-69
2023/05/22 08:37:20;;;;;;;24.58;7.95;;;28.20;92.30;;;;;;5080882;28;20036;-69
2023/05/22 08:39:46;;;;;;;13.55;8.52;;;28.80;90.90;;;;;;5084491;28;20047;-70
2023/05/22 08:42:12;;;;;;;8.70;7.85;;;28.50;93.30;;;;;;5065171;28;20106;-68
2023/05/22 08:44:38;;;;;;;11.38;8.60;;;28.80;92.70;;;;;;5066938;28;20120;-68
2023/05/22 08:47:09;;;;;;;11.18;7.95;;;28.30;91.80;;;;;;5067266;28;20178;-70
2023/05/22 08:49:37;;;;;;;15.52;9.13;;;27.80;91.30;;;;;;5066469;28;20049;-67
2023/05/22 08:52:12;;;;;;;10.55;8.52;;;27.20;90.90;;;;;;5058033;28;20821;-69
2023/05/22 08:54:46;;;;;;;14.70;8.43;;;26.20;95.00;;;;;;5057443;28;20045;-67
2023/05/22 08:57:12;;;;;;;11.23;8.52;;;26.20;96.90;;;;;;5066122;28;20053;-69
2023/05/22 08:59:40;;;;;;;16.23;9.63;;;25.90;94.90;;;;;;5067814;28;20461;-69
2023/05/22 09:02:08;;;;;;;13.10;9.07;;;25.20;98.10;;;;;;5068441;28;20237;-67
2023/05/22 09:04:34;;;;;;;12.48;9.23;;;25.30;99.00;;;;;;5080107;28;20105;-68
2023/05/22 09:07:04;;;;;;;13.85;8.45;;;25.20;97.60;;;;;;5077043;28;20045;-69
2023/05/22 09:09:31;;;;;;;16.48;9.95;;;24.90;99.10;;;;;;5067385;28;20048;-68
2023/05/22 09:11:57;;;;;;;16.55;9.30;;;24.70;99.10;;;;;;5066819;28;20550;-69
2023/05/22 09:14:24;;;;;;;12.13;7.93;;;24.60;99.10;;;;;;5069069;28;20040;-67
2023/05/22 09:16:51;;;;;;;15.75;8.90;;;24.70;97.70;;;;;;5063531;28;20033;-67
2023/05/22 09:19:17;;;;;;;13.48;9.07;;;24.70;98.10;;;;;;5067215;28;20406;-68
2023/05/22 09:21:46;;;;;;;12.40;8.88;;;24.90;99.00;;;;;;5055817;28;20047;-69
2023/05/22 09:24:12;;;;;;;14.73;9.50;;;24.60;98.00;;;;;;5066233;28;20071;-68
2023/05/22 09:26:39;;;;;;;11.77;9.25;;;24.40;98.10;;;;;;5065514;28;20096;-67
2023/05/22 09:29:06;;;;;;;11.52;9.35;;;24.20;97.20;;;;;;5071324;28;20058;-67
2023/05/22 09:31:39;;;;;;;14.95;9.25;;;24.10;97.30;;;;;;5068578;28;20404;-67
2023/05/22 09:34:06;;;;;;;13.02;9.77;;;24.10;97.60;;;;;;5070096;28;20064;-68
2023/05/22 09:36:33;;;;;;;18.20;9.52;;;24.10;98.40;;;;;;5064685;28;20048;-67
2023/05/22 09:39:03;;;;;;;13.57;9.25;;;23.90;98.90;;;;;;5067109;28;20050;-69
2023/05/22 09:41:30;;;;;;;13.40;9.23;;;24.20;99.90;;;;;;5075399;28;20775;-69
2023/05/22 09:43:55;;;;;;;14.02;9.88;;;24.10;96.70;;;;;;5046590;28;20107;-69
2023/05/22 09:46:21;;;;;;;18.10;10.45;;;23.90;99.90;;;;;;5064323;28;20921;-70
2023/05/22 09:48:53;;;;;;;12.13;9.25;;;23.70;99.90;;;;;;5065349;28;20119;-69
2023/05/22 09:51:22;;;;;;;11.73;9.75;;;23.80;99.90;;;;;;5062604;28;20043;-69
2023/05/22 09:53:50;;;;;;;13.60;9.50;;;23.60;98.60;;;;;;5065316;28;20044;-69
2023/05/22 09:56:18;;;;;;;15.68;10.63;;;23.60;98.60;;;;;;5064675;28;20697;-69
2023/05/22 09:58:45;;;;;;;16.77;9.65;;;23.70;99.60;;;;;;5050146;28;20033;-67
2023/05/22 10:01:12;;;;;;;15.02;9.65;;;23.80;98.50;;;;;;5043469;28;21048;-68
2023/05/22 10:03:41;;;;;;;12.73;9.77;;;23.90;99.10;;;;;;5056627;28;20040;-67
2023/05/22 10:06:09;;;;;;;14.88;10.13;;;23.80;99.10;;;;;;5065192;28;20496;-68
2023/05/22 10:08:43;;;;;;;13.95;9.82;;;23.80;99.60;;;;;;5065001;28;20675;-69
2023/05/22 10:11:10;;;;;;;15.48;9.88;;;23.80;99.30;;;;;;5063899;28;20048;-69
2023/05/22 10:13:36;;;;;;;12.55;10.60;;;23.80;99.90;;;;;;5053868;28;20033;-68
2023/05/22 10:16:05;;;;;;;11.80;9.80;;;23.50;98.70;;;;;;5066141;28;20047;-67
2023/05/22 10:18:31;;;;;;;14.98;10.35;;;23.50;99.90;;;;;;5075651;28;20093;-68
2023/05/22 10:20:59;;;;;;;14.35;10.02;;;23.70;99.90;;;;;;5064288;28;20068;-71
2023/05/22 10:23:27;;;;;;;12.52;9.80;;;23.60;99.90;;;;;;5064484;28;20039;-68
2023/05/22 10:25:53;;;;;;;18.15;10.60;;;23.70;99.50;;;;;;5064663;28;20047;-67
2023/05/22 10:28:36;;;;;;;12.80;10.50;;;23.90;99.70;;;;;;5063646;28;20067;-68
2023/05/22 10:31:13;;;;;;;14.85;10.05;;;23.80;98.50;;;;;;5056699;28;20759;-69
2023/05/22 10:33:47;;;;;;;14.45;9.23;;;24.10;99.90;;;;;;5064179;28;20121;-67
2023/05/22 10:36:35;;;;;;;12.30;9.52;;;24.20;98.20;;;;;;5065046;28;20047;-67
2023/05/22 10:39:20;;;;;;;16.27;10.93;;;24.40;99.80;;;;;;5064386;28;20033;-67
2023/05/22 10:41:46;;;;;;;16.27;10.30;;;24.50;98.80;;;;;;5064151;28;20040;-68
2023/05/22 10:44:12;;;;;;;19.80;9.68;;;24.40;97.80;;;;;;5051143;28;20047;-68
2023/05/22 10:46:37;;;;;;;14.70;10.98;;;24.50;97.40;;;;;;5058576;28;20041;-67
2023/05/22 10:49:03;;;;;;;15.75;9.40;;;24.40;97.90;;;;;;5061275;28;20033;-67
2023/05/22 10:51:33;;;;;;;22.70;10.05;;;24.40;97.90;;;;;;5062725;28;20542;-68
2023/05/22 10:54:01;;;;;;;20.73;10.65;;;24.40;98.60;;;;;;5056167;28;20539;-68
2023/05/22 10:56:34;;;;;;;15.25;10.52;;;24.60;98.60;;;;;;5054791;28;20052;-68
2023/05/22 10:59:06;;;;;;;12.05;9.65;;;24.20;98.70;;;;;;5056849;28;20048;-67
2023/05/22 11:01:36;;;;;;;14.45;9.68;;;24.20;99.30;;;;;;5060597;28;20109;-67
2023/05/22 11:04:10;;;;;;;15.02;10.23;;;24.00;98.60;;;;;;5063823;28;20028;-67
2023/05/22 11:06:48;;;;;;;18.05;9.40;;;23.80;98.90;;;;;;5064027;28;20798;-67
2023/05/22 11:09:52;;;;;;;12.77;9.35;;;23.60;98.20;;;;;;5056070;28;20033;-68
2023/05/22 11:12:23;;;;;;;17.50;9.63;;;23.60;99.20;;;;;;5022246;28;20041;-67
2023/05/22 11:14:58;;;;;;;18.83;11.00;;;23.40;99.90;;;;;;5019925;28;20651;-67
2023/05/22 11:17:29;;;;;;;15.10;9.32;;;23.20;98.70;;;;;;5043610;28;20097;-67
2023/05/22 11:20:24;;;;;;;17.40;10.73;;;23.10;99.00;;;;;;5064985;28;20036;-67
2023/05/22 11:22:59;;;;;;;15.50;10.88;;;22.90;99.90;;;;;;5063813;28;20040;-68
2023/05/22 11:25:26;;;;;;;21.70;11.25;;;22.60;99.90;;;;;;5064147;28;20158;-66
2023/05/22 11:27:53;;;;;;;16.90;11.00;;;22.40;99.90;;;;;;5063945;28;20684;-68
2023/05/22 11:30:19;;;;;;;18.95;12.02;;;22.00;99.90;;;;;;5055773;28;20037;-69
2023/05/22 11:32:46;;;;;;;17.05;10.75;;;21.80;99.90;;;;;;5060091;28;20235;-69
2023/05/22 11:35:20;;;;;;;20.60;10.70;;;21.60;99.90;;;;;;5063195;28;20040;-69
2023/05/22 11:37:47;;;;;;;19.08;9.75;;;21.50;99.90;;;;;;5063225;28;20044;-67
2023/05/22 11:40:18;;;;;;;15.93;9.80;;;21.40;99.90;;;;;;5063806;28;20036;-70
2023/05/22 11:42:44;;;;;;;14.55;8.82;;;21.20;99.90;;;;;;5063062;28;20048;-67
2023/05/22 11:45:10;;;;;;;11.25;8.00;;;21.20;99.90;;;;;;5063114;28;20040;-67
2023/05/22 11:47:36;;;;;;;14.73;8.63;;;21.10;99.90;;;;;;5062548;28;20425;-67
2023/05/22 11:50:03;;;;;;;12.00;8.18;;;21.10;99.90;;;;;;5060240;28;20067;-69
2023/05/22 11:52:32;;;;;;;17.63;8.40;;;20.90;99.90;;;;;;5062556;28;20040;-67
2023/05/22 11:54:59;;;;;;;14.70;9.10;;;20.90;99.90;;;;;;5055495;28;20036;-67
2023/05/22 11:57:24;;;;;;;16.70;9.13;;;20.80;99.90;;;;;;5062713;28;20044;-66
2023/05/22 11:59:50;;;;;;;14.07;8.45;;;20.80;99.90;;;;;;5056032;28;20037;-68
2023/05/22 12:02:17;;;;;;;16.02;8.85;;;20.70;99.90;;;;;;5048046;28;20804;-67
2023/05/22 12:04:43;;;;;;;16.23;11.20;;;20.60;99.90;;;;;;5063875;28;20043;-66
2023/05/22 12:07:09;;;;;;;20.50;12.40;;;20.50;99.90;;;;;;5062615;28;20045;-66
2023/05/22 12:09:37;;;;;;;33.38;12.50;;;20.40;99.90;;;;;;5063648;28;20032;-68
2023/05/22 12:12:02;;;;;;;19.02;11.68;;;20.30;99.90;;;;;;5063166;28;20394;-67
2023/05/22 12:14:30;;;;;;;16.35;11.68;;;20.20;99.90;;;;;;5065301;28;20047;-66
2023/05/22 12:16:59;;;;;;;16.70;11.57;;;20.10;99.90;;;;;;5070637;28;20044;-67
2023/05/22 12:19:26;;;;;;;17.55;10.98;;;20.00;99.90;;;;;;5067964;28;20331;-68
2023/05/22 12:21:52;;;;;;;16.98;12.27;;;20.00;99.90;;;;;;5075012;28;20082;-68
2023/05/22 12:24:22;;;;;;;24.77;14.02;;;19.90;99.90;;;;;;5063422;28;20041;-67
2023/05/22 12:26:53;;;;;;;16.58;12.05;;;19.80;99.90;;;;;;5063574;28;20846;-67
2023/05/22 12:29:23;;;;;;;16.95;9.60;;;19.50;99.90;;;;;;5062299;28;20115;-67
2023/05/22 12:31:49;;;;;;;11.00;8.52;;;19.30;99.90;;;;;;5064745;28;20425;-67
2023/05/22 12:34:17;;;;;;;15.75;8.20;;;19.10;99.90;;;;;;5067089;28;20047;-66
2023/05/22 12:36:44;;;;;;;12.98;8.70;;;19.00;99.90;;;;;;5065615;28;20071;-68
2023/05/22 12:39:17;;;;;;;13.15;8.98;;;18.90;99.90;;;;;;5063347;28;20045;-68
2023/05/22 12:41:44;;;;;;;13.00;7.78;;;18.70;99.90;;;;;;5062858;28;20044;-66
2023/05/22 12:44:11;;;;;;;17.65;6.75;;;18.50;99.90;;;;;;5070863;28;20032;-68
2023/05/22 12:46:40;;;;;;;15.40;7.57;;;18.30;99.90;;;;;;5069936;28;20047;-66